Time;durP1;ratioP1;P1;durP2;ratioP2;P2;SDS_P1;SDS_P2;PMS_P1;PMS_P2;Temp;Humidity;BMP_temperature;BMP_pressure;BME280_temperature;BME280_humidity;BME280_pressure;Samples;Min_cycle;Max_cycle;Signal;HPM_P1;HPM_P2
2021/03/01 00:01:12;;;;;;;;;;;;;;;;;;4960456;28;19926;-67
2021/03/01 00:03:40;;;;;;;;;;;;;;;;;;4990922;28;19926;-67
2021/03/01 00:06:07;;;;;;;;;;;;;;;;;;5012440;28;19976;-67
2021/03/01 00:08:34;;;;;;;;;;;;;;;;;;4998623;28;19942;-67
2021/03/01 00:11:01;;;;;;;;;;;;;;;;;;5005800;28;20408;-67
2021/03/01 00:13:28;;;;;;;;;;;;;;;;;;4998288;28;20008;-67
2021/03/01 00:15:55;;;;;;;;;;;;;;;;;;5009722;28;19925;-67
2021/03/01 00:18:22;;;;;;;;;;;;;;;;;;5008915;28;19926;-67
2021/03/01 00:20:50;;;;;;;;;;;;;;;;;;5005968;28;19979;-67
2021/03/01 00:23:17;;;;;;;;;;;;;;;;;;4997689;28;19972;-67
2021/03/01 00:25:44;;;;;;;;;;;;;;;;;;5002503;28;19925;-67
2021/03/01 00:28:11;;;;;;;;;;;;;;;;;;5009435;28;20351;-67
2021/03/01 00:30:38;;;;;;;;;;;;;;;;;;5006066;28;20019;-67
2021/03/01 00:33:06;;;;;;;;;;;;;;;;;;5008040;28;20028;-67
2021/03/01 00:35:33;;;;;;;;;;;;;;;;;;4993532;28;19926;-66
2021/03/01 00:38:00;;;;;;;;;;;;;;;;;;4997535;28;19948;-67
2021/03/01 00:40:29;;;;;;;;;;;;;;;;;;4995404;28;19948;-67
2021/03/01 00:42:56;;;;;;;;;;;;;;;;;;4997672;28;19976;-67
2021/03/01 00:45:24;;;;;;;;;;;;;;;;;;4996506;28;20007;-68
2021/03/01 00:47:51;;;;;;;;;;;;;;;;;;4995674;28;19987;-67
2021/03/01 00:50:19;;;;;;;;;;;;;;;;;;4993529;28;19926;-67
2021/03/01 00:52:46;;;;;;;;;;;;;;;;;;4995702;28;20008;-67
2021/03/01 00:55:13;;;;;;;;;;;;;;;;;;4997896;28;20332;-67
2021/03/01 00:57:40;;;;;;;;;;;;;;;;;;5006083;28;20103;-67
2021/03/01 01:00:07;;;;;;;;;;;;;;;;;;5004833;28;20024;-67
2021/03/01 01:02:35;;;;;;;;;;;;;;;;;;4998258;28;19980;-68
2021/03/01 01:05:02;;;;;;;;;;;;;;;;;;5011684;28;20405;-67
2021/03/01 01:07:29;;;;;;;;;;;;;;;;;;5009711;28;19973;-65
2021/03/01 01:09:56;;;;;;;;;;;;;;;;;;5002962;28;20028;-66
2021/03/01 01:12:23;;;;;;;;;;;;;;;;;;4996451;28;20019;-66
2021/03/01 01:14:50;;;;;;;;;;;;;;;;;;4993047;28;20036;-66
2021/03/01 01:17:17;;;;;;;;;;;;;;;;;;4995066;28;19936;-66
2021/03/01 01:19:45;;;;;;;;;;;;;;;;;;4992642;28;19926;-66
2021/03/01 01:22:12;;;;;;;;;;;;;;;;;;4992232;28;20464;-66
2021/03/01 01:24:39;;;;;;;;;;;;;;;;;;5003663;28;19925;-66
2021/03/01 01:27:06;;;;;;;;;;;;;;;;;;4994995;28;20396;-66
2021/03/01 01:29:33;;;;;;;;;;;;;;;;;;5002348;28;19929;-66
2021/03/01 01:32:00;;;;;;;;;;;;;;;;;;4994513;28;19932;-66
2021/03/01 01:34:28;;;;;;;;;;;;;;;;;;5005284;28;19925;-66
2021/03/01 01:36:55;;;;;;;;;;;;;;;;;;5005125;28;20025;-66
2021/03/01 01:39:22;;;;;;;;;;;;;;;;;;5003209;28;20460;-66
2021/03/01 01:41:49;;;;;;;;;;;;;;;;;;5003499;28;19925;-66
2021/03/01 01:44:16;;;;;;;;;;;;;;;;;;4993152;28;19992;-66
2021/03/01 01:46:43;;;;;;;;;;;;;;;;;;4992216;28;19936;-66
2021/03/01 01:49:10;;;;;;;;;;;;;;;;;;4990930;28;19929;-66
2021/03/01 01:51:38;;;;;;;;;;;;;;;;;;4996038;28;19954;-66
2021/03/01 01:54:05;;;;;;;;;;;;;;;;;;4997982;28;20285;-66
2021/03/01 01:56:32;;;;;;;;;;;;;;;;;;4995261;28;19930;-66
2021/03/01 01:58:59;;;;;;;;;;;;;;;;;;4996257;28;20337;-66
2021/03/01 02:01:26;;;;;;;;;;;;;;;;;;4993237;28;20048;-66
2021/03/01 02:03:54;;;;;;;;;;;;;;;;;;5021032;23;19949;-88
2021/03/01 02:06:43;;;;;;;;;;;;;;;;;;5012189;28;19926;-89
2021/03/01 02:09:38;;;;;;;;;;;;;;;;;;5004618;28;19976;-89
2021/03/01 02:12:17;;;;;;;;;;;;;;;;;;5012462;28;19953;-89
2021/03/01 02:15:05;;;;;;;;;;;;;;;;;;5008127;28;19926;-89
2021/03/01 02:17:36;;;;;;;;;;;;;;;;;;5008132;28;19925;-90
2021/03/01 02:20:31;;;;;;;;;;;;;;;;;;4989419;28;19926;-89
2021/03/01 02:29:06;;;;;;;;;;;;;;;;;;4987861;28;19985;-89
2021/03/01 02:34:23;;;;;;;;;;;;;;;;;;4989214;28;19930;-89
2021/03/01 02:39:57;;;;;;;;;;;;;;;;;;5012510;28;19955;-89
2021/03/01 02:42:37;;;;;;;;;;;;;;;;;;5009123;28;19971;-88
2021/03/01 02:45:28;;;;;;;;;;;;;;;;;;5009417;28;19976;-88
2021/03/01 02:48:04;;;;;;;;;;;;;;;;;;5009578;28;19965;-90
2021/03/01 02:50:36;;;;;;;;;;;;;;;;;;5009214;28;19926;-89
2021/03/01 02:53:13;;;;;;;;;;;;;;;;;;5006228;28;20346;-89
2021/03/01 02:55:43;;;;;;;;;;;;;;;;;;5006175;28;20393;-90
2021/03/01 02:58:16;;;;;;;;;;;;;;;;;;5004794;28;19925;-90
2021/03/01 03:00:50;;;;;;;;;;;;;;;;;;5008960;28;19925;-89
2021/03/01 03:06:14;;;;;;;;;;;;;;;;;;5004578;28;19927;-90
2021/03/01 03:11:48;;;;;;;;;;;;;;;;;;5012473;28;19925;-89
2021/03/01 03:14:32;;;;;;;;;;;;;;;;;;5012009;28;19926;-89
2021/03/01 03:17:25;;;;;;;;;;;;;;;;;;4989958;28;20013;-89
2021/03/01 03:19:58;;;;;;;;;;;;;;;;;;4980292;28;19971;-89
2021/03/01 03:25:56;;;;;;;;;;;;;;;;;;5015556;28;19929;-90
2021/03/01 03:28:39;;;;;;;;;;;;;;;;;;4992000;28;19926;-89
2021/03/01 03:37:15;;;;;;;;;;;;;;;;;;5008463;28;19953;-89
2021/03/01 03:49:06;;;;;;;;;;;;;;;;;;5014240;28;19930;-90
2021/03/01 03:51:50;;;;;;;;;;;;;;;;;;5008796;28;19961;-90
2021/03/01 03:54:27;;;;;;;;;;;;;;;;;;5009342;28;19930;-89
2021/03/01 03:57:11;;;;;;;;;;;;;;;;;;5004206;28;19937;-89
2021/03/01 03:59:43;;;;;;;;;;;;;;;;;;4999008;28;19945;-89
2021/03/01 04:02:13;;;;;;;;;;;;;;;;;;4946894;29;19927;-89
2021/03/01 04:04:46;;;;;;;;;;;;;;;;;;4947461;29;19956;-89
2021/03/01 04:07:14;;;;;;;;;;;;;;;;;;4947469;29;19927;-89
2021/03/01 04:09:50;;;;;;;;;;;;;;;;;;4946523;29;19927;-89
2021/03/01 04:12:19;;;;;;;;;;;;;;;;;;4930445;29;20424;-89
2021/03/01 04:14:47;;;;;;;;;;;;;;;;;;4945978;29;20272;-89
2021/03/01 04:17:17;;;;;;;;;;;;;;;;;;4945878;29;20047;-89
2021/03/01 04:19:50;;;;;;;;;;;;;;;;;;4943789;29;20014;-89
2021/03/01 04:22:22;;;;;;;;;;;;;;;;;;4946940;29;19926;-88
2021/03/01 04:24:50;;;;;;;;;;;;;;;;;;4947268;29;19995;-89
2021/03/01 04:27:19;;;;;;;;;;;;;;;;;;4976279;28;19934;-90
2021/03/01 04:29:47;;;;;;;;;;;;;;;;;;4932763;28;20030;-89
2021/03/01 04:32:18;;;;;;;;;;;;;;;;;;4942339;29;19934;-89
2021/03/01 04:34:54;;;;;;;;;;;;;;;;;;4927636;29;19927;-90
2021/03/01 04:37:24;;;;;;;;;;;;;;;;;;4926467;29;19991;-89
2021/03/01 04:39:53;;;;;;;;;;;;;;;;;;4915195;29;19954;-89
2021/03/01 04:42:22;;;;;;;;;;;;;;;;;;4928689;29;19934;-87
2021/03/01 04:44:58;;;;;;;;;;;;;;;;;;4934603;29;19915;-89
2021/03/01 04:47:29;;;;;;;;;;;;;;;;;;4952584;29;19960;-90
2021/03/01 04:50:01;;;;;;;;;;;;;;;;;;4938254;29;20039;-90
2021/03/01 04:52:32;;;;;;;;;;;;;;;;;;4933382;29;19966;-89
2021/03/01 04:55:11;;;;;;;;;;;;;;;;;;4971021;28;20055;-89
2021/03/01 04:57:44;;;;;;;;;;;;;;;;;;4980120;28;20002;-88
2021/03/01 05:00:14;;;;;;;;;;;;;;;;;;4985021;28;19930;-89
2021/03/01 05:02:45;;;;;;;;;;;;;;;;;;4985827;28;20001;-89
2021/03/01 05:05:14;;;;;;;;;;;;;;;;;;5001444;28;19930;-89
2021/03/01 05:07:43;;;;;;;;;;;;;;;;;;5003633;28;19958;-89
2021/03/01 05:10:15;;;;;;;;;;;;;;;;;;5024812;28;19988;-89
2021/03/01 05:12:44;;;;;;;;;;;;;;;;;;5023360;28;19961;-88
2021/03/01 05:15:17;;;;;;;;;;;;;;;;;;5017471;28;19980;-89
2021/03/01 05:17:52;;;;;;;;;;;;;;;;;;5013590;28;19971;-88
2021/03/01 05:20:28;;;;;;;;;;;;;;;;;;5023992;28;19930;-89
2021/03/01 05:23:08;;;;;;;;;;;;;;;;;;5024025;28;19936;-89
2021/03/01 05:25:51;;;;;;;;;;;;;;;;;;5023381;28;19936;-89
2021/03/01 05:28:30;;;;;;;;;;;;;;;;;;5011361;28;19960;-89
2021/03/01 05:31:02;;;;;;;;;;;;;;;;;;5031903;28;19985;-90
2021/03/01 05:33:32;;;;;;;;;;;;;;;;;;5026000;28;19937;-90
2021/03/01 05:36:01;;;;;;;;;;;;;;;;;;5019593;28;19925;-89
2021/03/01 05:38:30;;;;;;;;;;;;;;;;;;5022880;28;20016;-88
2021/03/01 05:41:08;;;;;;;;;;;;;;;;;;5024598;28;19937;-90
2021/03/01 05:43:44;;;;;;;;;;;;;;;;;;5025553;28;19929;-89
2021/03/01 05:46:15;;;;;;;;;;;;;;;;;;5005468;28;20025;-89
2021/03/01 05:48:43;;;;;;;;;;;;;;;;;;4995506;28;19926;-89
2021/03/01 05:51:15;;;;;;;;;;;;;;;;;;4985455;28;19926;-89
2021/03/01 05:53:47;;;;;;;;;;;;;;;;;;4983825;28;20432;-89
2021/03/01 05:56:21;;;;;;;;;;;;;;;;;;4984160;28;19937;-89
2021/03/01 05:58:52;;;;;;;;;;;;;;;;;;4955850;28;19930;-89
2021/03/01 06:01:20;;;;;;;;;;;;;;;;;;4981985;28;19934;-88
2021/03/01 06:03:52;;;;;;;;;;;;;;;;;;4980845;28;20020;-89
2021/03/01 06:06:34;;;;;;;;;;;;;;;;;;4987055;28;19933;-89
2021/03/01 06:09:05;;;;;;;;;;;;;;;;;;4989369;28;20009;-89
2021/03/01 06:11:36;;;;;;;;;;;;;;;;;;4980329;28;19950;-89
2021/03/01 06:14:04;;;;;;;;;;;;;;;;;;4994062;28;19933;-89
2021/03/01 06:16:36;;;;;;;;;;;;;;;;;;5003806;28;19933;-89
2021/03/01 06:19:11;;;;;;;;;;;;;;;;;;5020571;28;19948;-89
2021/03/01 06:21:41;;;;;;;;;;;;;;;;;;5023738;28;19926;-90
2021/03/01 06:24:12;;;;;;;;;;;;;;;;;;4993830;28;19973;-89
2021/03/01 06:26:43;;;;;;;;;;;;;;;;;;4998502;28;19925;-89
2021/03/01 06:29:16;;;;;;;;;;;;;;;;;;5001393;28;19932;-89
2021/03/01 06:31:57;;;;;;;;;;;;;;;;;;5005741;28;19961;-89
2021/03/01 06:34:54;;;;;;;;;;;;;;;;;;5005278;28;19933;-89
2021/03/01 06:40:05;;;;;;;;;;;;;;;;;;4972866;28;23471;-88
2021/03/01 06:42:38;;;;;;;;;;;;;;;;;;4996983;28;19929;-89
2021/03/01 06:45:07;;;;;;;;;;;;;;;;;;5003016;28;19985;-87
2021/03/01 06:50:36;;;;;;;;;;;;;;;;;;5011004;28;19932;-88
2021/03/01 06:55:53;;;;;;;;;;;;;;;;;;5006789;28;19926;-87
2021/03/01 06:58:24;;;;;;;;;;;;;;;;;;4980643;28;19989;-88
2021/03/01 07:00:56;;;;;;;;;;;;;;;;;;4985594;28;20045;-87
2021/03/01 07:03:29;;;;;;;;;;;;;;;;;;4984853;28;19950;-87
2021/03/01 07:06:02;;;;;;;;;;;;;;;;;;4987425;28;20033;-88
2021/03/01 07:08:35;;;;;;;;;;;;;;;;;;4986647;28;19926;-88
2021/03/01 07:11:05;;;;;;;;;;;;;;;;;;4994039;28;20465;-88
2021/03/01 07:13:34;;;;;;;;;;;;;;;;;;5001411;28;20377;-88
2021/03/01 07:16:05;;;;;;;;;;;;;;;;;;4982900;28;19925;-88
2021/03/01 07:18:32;;;;;;;;;;;;;;;;;;5004572;28;19925;-89
2021/03/01 07:21:06;;;;;;;;;;;;;;;;;;5000579;28;19941;-88
2021/03/01 07:23:45;;;;;;;;;;;;;;;;;;4985100;28;19974;-88
2021/03/01 07:26:17;;;;;;;;;;;;;;;;;;5000358;28;19929;-88
2021/03/01 07:28:49;;;;;;;;;;;;;;;;;;5002544;28;20365;-86
2021/03/01 07:31:18;;;;;;;;;;;;;;;;;;4988580;28;20009;-87
2021/03/01 07:33:46;;;;;;;;;;;;;;;;;;5027118;28;19931;-87
2021/03/01 07:36:20;;;;;;;;;;;;;;;;;;5027506;28;19932;-87
2021/03/01 07:39:00;;;;;;;;;;;;;;;;;;5030478;28;19929;-87
2021/03/01 07:41:32;;;;;;;;;;;;;;;;;;5036727;28;20258;-88
2021/03/01 07:44:03;;;;;;;;;;;;;;;;;;5029283;28;19937;-88
2021/03/01 07:46:33;;;;;;;;;;;;;;;;;;5007444;28;19957;-88
2021/03/01 07:49:09;;;;;;;;;;;;;;;;;;4995659;28;19972;-88
2021/03/01 07:51:43;;;;;;;;;;;;;;;;;;5023446;28;20080;-89
2021/03/01 07:54:16;;;;;;;;;;;;;;;;;;5007931;28;20234;-89
2021/03/01 07:57:02;;;;;;;;;;;;;;;;;;5021971;28;19940;-90
2021/03/01 08:02:40;;;;;;;;;;;;;;;;;;5007341;28;19933;-90
2021/03/01 08:05:18;;;;;;;;;;;;;;;;;;4996371;28;19926;-90
2021/03/01 08:08:08;;;;;;;;;;;;;;;;;;5011496;28;19940;-90
2021/03/01 08:10:54;;;;;;;;;;;;;;;;;;5018687;28;19929;-90
2021/03/01 08:13:23;;;;;;;;;;;;;;;;;;5023231;28;19929;-89
2021/03/01 08:15:55;;;;;;;;;;;;;;;;;;5023147;28;20013;-91
2021/03/01 08:18:30;;;;;;;;;;;;;;;;;;5017659;28;19972;-91
2021/03/01 08:24:14;;;;;;;;;;;;;;;;;;4975215;28;19926;-90
2021/03/01 08:26:58;;;;;;;;;;;;;;;;;;4974576;28;20421;-90
2021/03/01 08:29:36;;;;;;;;;;;;;;;;;;4984631;28;19926;-91
2021/03/01 08:32:28;;;;;;;;;;;;;;;;;;4981402;28;19940;-90
2021/03/01 08:37:46;;;;;;;;;;;;;;;;;;4972930;28;19930;-90
2021/03/01 08:40:27;;;;;;;;;;;;;;;;;;4984426;28;20917;-89
2021/03/01 08:43:03;;;;;;;;;;;;;;;;;;4985545;28;19926;-90
2021/03/01 08:45:49;;;;;;;;;;;;;;;;;;4964956;29;19941;-90
2021/03/01 08:48:29;;;;;;;;;;;;;;;;;;4976316;28;19933;-92
2021/03/01 08:51:00;;;;;;;;;;;;;;;;;;5001006;28;20032;-90
2021/03/01 08:53:35;;;;;;;;;;;;;;;;;;5004341;28;19930;-90
2021/03/01 08:56:14;;;;;;;;;;;;;;;;;;5022148;28;19929;-91
2021/03/01 08:58:44;;;;;;;;;;;;;;;;;;5003501;28;19940;-89
2021/03/01 09:01:17;;;;;;;;;;;;;;;;;;4998075;28;20279;-90
2021/03/01 09:03:57;;;;;;;;;;;;;;;;;;5003567;28;19950;-90
2021/03/01 09:06:44;;;;;;;;;;;;;;;;;;5004720;28;19993;-90
2021/03/01 09:09:15;;;;;;;;;;;;;;;;;;4975960;28;19926;-90
2021/03/01 09:11:46;;;;;;;;;;;;;;;;;;4967413;28;20344;-90
2021/03/01 09:14:22;;;;;;;;;;;;;;;;;;4952200;28;19926;-90
2021/03/01 09:17:09;;;;;;;;;;;;;;;;;;4941283;29;19969;-93
2021/03/01 09:19:38;;;;;;;;;;;;;;;;;;4955398;29;20299;-91
2021/03/01 09:22:07;;;;;;;;;;;;;;;;;;4958025;29;20331;-92
2021/03/01 09:24:43;;;;;;;;;;;;;;;;;;4945003;28;19927;-91
2021/03/01 09:27:13;;;;;;;;;;;;;;;;;;4937342;29;20033;-91
2021/03/01 09:29:56;;;;;;;;;;;;;;;;;;4933669;29;19931;-93
2021/03/01 09:32:29;;;;;;;;;;;;;;;;;;4926432;29;19980;-92
2021/03/01 09:35:11;;;;;;;;;;;;;;;;;;4953356;28;19981;-91
2021/03/01 09:37:41;;;;;;;;;;;;;;;;;;4974650;28;20021;-91
2021/03/01 09:42:53;;;;;;;;;;;;;;;;;;4980323;28;20014;-91
2021/03/01 09:45:37;;;;;;;;;;;;;;;;;;4981495;28;20338;-91
2021/03/01 09:48:10;;;;;;;;;;;;;;;;;;4987963;28;19926;-91
2021/03/01 09:53:28;;;;;;;;;;;;;;;;;;4984767;28;19926;-91
2021/03/01 09:55:57;;;;;;;;;;;;;;;;;;4980851;28;19930;-92
2021/03/01 09:58:30;;;;;;;;;;;;;;;;;;4978652;28;19927;-91
2021/03/01 10:04:03;;;;;;;;;;;;;;;;;;4980619;28;19969;-92
2021/03/01 10:06:50;;;;;;;;;;;;;;;;;;4998201;28;20281;-91
2021/03/01 10:09:29;;;;;;;;;;;;;;;;;;4995700;28;19992;-92
2021/03/01 10:15:11;;;;;;;;;;;;;;;;;;5004288;28;20285;-91
2021/03/01 10:20:27;;;;;;;;;;;;;;;;;;5008930;28;19937;-92
2021/03/01 10:22:56;;;;;;;;;;;;;;;;;;5029809;28;20037;-93
2021/03/01 10:28:09;;;;;;;;;;;;;;;;;;5010033;28;20062;-93
2021/03/01 10:30:43;;;;;;;;;;;;;;;;;;4994505;28;19926;-91
2021/03/01 10:33:13;;;;;;;;;;;;;;;;;;5011663;28;20016;-91
2021/03/01 10:38:31;;;;;;;;;;;;;;;;;;5000796;28;20040;-90
2021/03/01 10:44:14;;;;;;;;;;;;;;;;;;4996711;28;19937;-90
2021/03/01 10:46:42;;;;;;;;;;;;;;;;;;5004279;28;19930;-91
2021/03/01 10:49:11;;;;;;;;;;;;;;;;;;4997526;28;20309;-90
2021/03/01 10:51:39;;;;;;;;;;;;;;;;;;4998931;28;20020;-90
2021/03/01 10:54:07;;;;;;;;;;;;;;;;;;4999632;28;19926;-90
2021/03/01 10:56:35;;;;;;;;;;;;;;;;;;4999461;28;19930;-91
2021/03/01 10:59:05;;;;;;;;;;;;;;;;;;4998876;28;20289;-90
2021/03/01 11:01:39;;;;;;;;;;;;;;;;;;4999327;28;19925;-91
2021/03/01 11:04:11;;;;;;;;;;;;;;;;;;5004956;28;19936;-93
2021/03/01 11:06:56;;;;;;;;;;;;;;;;;;4994852;28;19938;-94
2021/03/01 11:09:25;;;;;;;;;;;;;;;;;;5021797;28;19926;-92
2021/03/01 11:11:54;;;;;;;;;;;;;;;;;;5004113;28;19926;-93
2021/03/01 11:17:27;;;;;;;;;;;;;;;;;;4990928;28;19990;-93
2021/03/01 11:20:04;;;;;;;;;;;;;;;;;;4995053;28;20008;-92
2021/03/01 11:22:39;;;;;;;;;;;;;;;;;;5025936;28;19972;-92
2021/03/01 11:25:08;;;;;;;;;;;;;;;;;;5024481;28;20263;-93
2021/03/01 11:27:44;;;;;;;;;;;;;;;;;;5022345;28;19925;-93
2021/03/01 11:30:12;;;;;;;;;;;;;;;;;;5025162;28;19929;-94
2021/03/01 11:35:38;;;;;;;;;;;;;;;;;;5023139;28;19980;-92
2021/03/01 11:38:09;;;;;;;;;;;;;;;;;;5023160;28;19988;-90
2021/03/01 11:40:45;;;;;;;;;;;;;;;;;;5022668;28;19930;-93
2021/03/01 11:43:20;;;;;;;;;;;;;;;;;;5020083;28;19976;-91
2021/03/01 11:45:51;;;;;;;;;;;;;;;;;;5022620;28;19936;-92
2021/03/01 11:48:19;;;;;;;;;;;;;;;;;;5018432;28;19929;-92
2021/03/01 11:50:51;;;;;;;;;;;;;;;;;;5022542;28;19925;-91
2021/03/01 11:53:42;;;;;;;;;;;;;;;;;;5019124;28;19930;-92
2021/03/01 11:56:27;;;;;;;;;;;;;;;;;;5021980;28;19925;-94
2021/03/01 11:59:03;;;;;;;;;;;;;;;;;;4992146;28;19988;-92
2021/03/01 12:01:32;;;;;;;;;;;;;;;;;;5016084;28;19933;-90
2021/03/01 12:04:00;;;;;;;;;;;;;;;;;;4999052;28;19936;-90
2021/03/01 12:06:50;;;;;;;;;;;;;;;;;;4993112;28;19930;-91
2021/03/01 12:12:00;;;;;;;;;;;;;;;;;;4974070;28;19926;-92
2021/03/01 12:14:50;;;;;;;;;;;;;;;;;;4974648;28;20410;-91
2021/03/01 12:17:18;;;;;;;;;;;;;;;;;;4975625;28;20426;-92
2021/03/01 12:25:41;;;;;;;;;;;;;;;;;;4975824;28;19941;-90
2021/03/01 12:34:01;;;;;;;;;;;;;;;;;;4936793;29;19926;-92
2021/03/01 12:36:33;;;;;;;;;;;;;;;;;;4956377;29;19938;-90
2021/03/01 12:39:04;;;;;;;;;;;;;;;;;;4953052;28;20301;-90
2021/03/01 12:41:38;;;;;;;;;;;;;;;;;;4943616;29;19930;-90
2021/03/01 12:50:26;;;;;;;;;;;;;;;;;;4950185;29;19934;-91
2021/03/01 12:52:59;;;;;;;;;;;;;;;;;;4953260;28;19930;-91
2021/03/01 12:55:41;;;;;;;;;;;;;;;;;;4976651;28;20479;-91
2021/03/01 12:58:18;;;;;;;;;;;;;;;;;;4976420;28;19933;-91
2021/03/01 13:00:47;;;;;;;;;;;;;;;;;;4971859;28;19934;-91
2021/03/01 13:06:31;;;;;;;;;;;;;;;;;;4969953;28;19926;-91
2021/03/01 13:12:07;;;;;;;;;;;;;;;;;;4975813;28;19933;-92
2021/03/01 13:14:37;;;;;;;;;;;;;;;;;;4977791;28;19958;-92
2021/03/01 13:17:27;;;;;;;;;;;;;;;;;;4978960;28;20324;-91
2021/03/01 13:20:03;;;;;;;;;;;;;;;;;;4983314;28;20017;-92
2021/03/01 13:22:35;;;;;;;;;;;;;;;;;;4966286;28;20555;-92
2021/03/01 13:25:07;;;;;;;;;;;;;;;;;;4966145;28;19978;-90
2021/03/01 13:27:42;;;;;;;;;;;;;;;;;;4979987;28;19941;-91
2021/03/01 13:30:13;;;;;;;;;;;;;;;;;;4977265;28;20029;-91
2021/03/01 13:33:04;;;;;;;;;;;;;;;;;;4951547;28;19997;-92
2021/03/01 13:38:29;;;;;;;;;;;;;;;;;;4944775;28;19978;-91
2021/03/01 13:49:43;;;;;;;;;;;;;;;;;;4976094;28;20327;-91
2021/03/01 13:52:19;;;;;;;;;;;;;;;;;;4975343;28;19967;-92
2021/03/01 13:54:47;;;;;;;;;;;;;;;;;;4976389;28;20029;-92
2021/03/01 13:57:16;;;;;;;;;;;;;;;;;;4973900;28;20239;-92
2021/03/01 13:59:49;;;;;;;;;;;;;;;;;;4965451;28;19934;-92
2021/03/01 14:02:18;;;;;;;;;;;;;;;;;;4976845;28;20134;-90
2021/03/01 14:04:54;;;;;;;;;;;;;;;;;;4970479;28;19930;-91
2021/03/01 14:07:25;;;;;;;;;;;;;;;;;;4979647;28;19964;-90
2021/03/01 14:09:54;;;;;;;;;;;;;;;;;;4978434;28;19934;-91
2021/03/01 14:12:21;;;;;;;;;;;;;;;;;;4966115;28;19930;-92
2021/03/01 14:14:51;;;;;;;;;;;;;;;;;;4962221;28;19926;-92
2021/03/01 14:17:21;;;;;;;;;;;;;;;;;;4972421;28;19934;-91
2021/03/01 14:19:49;;;;;;;;;;;;;;;;;;4989404;28;19930;-91
2021/03/01 14:22:26;;;;;;;;;;;;;;;;;;4968879;28;20370;-91
2021/03/01 14:24:57;;;;;;;;;;;;;;;;;;4992592;28;19953;-91
2021/03/01 14:27:27;;;;;;;;;;;;;;;;;;4986710;28;19930;-90
2021/03/01 14:30:09;;;;;;;;;;;;;;;;;;4976012;28;20045;-89
2021/03/01 14:32:44;;;;;;;;;;;;;;;;;;4979559;28;19930;-91
2021/03/01 14:35:27;;;;;;;;;;;;;;;;;;4985726;28;19993;-91
2021/03/01 14:37:59;;;;;;;;;;;;;;;;;;4988503;28;19933;-91
2021/03/01 14:40:28;;;;;;;;;;;;;;;;;;4982864;28;19953;-91
2021/03/01 14:43:09;;;;;;;;;;;;;;;;;;4981631;28;19937;-91
2021/03/01 14:45:38;;;;;;;;;;;;;;;;;;4980468;28;20012;-91
2021/03/01 14:48:06;;;;;;;;;;;;;;;;;;4975552;28;19934;-91
2021/03/01 14:50:33;;;;;;;;;;;;;;;;;;4973592;28;19998;-90
2021/03/01 14:53:01;;;;;;;;;;;;;;;;;;4969958;28;19954;-91
2021/03/01 14:55:30;;;;;;;;;;;;;;;;;;4968166;28;20005;-93
2021/03/01 14:58:20;;;;;;;;;;;;;;;;;;4963730;29;20406;-94
2021/03/01 15:04:42;;;;;;;;;;;;;;;;;;4828084;29;20466;-95
2021/03/01 15:10:38;;;;;;;;;;;;;;;;;;4855743;29;19928;-93
2021/03/01 15:13:23;;;;;;;;;;;;;;;;;;4852373;29;20393;-93
2021/03/01 15:15:55;;;;;;;;;;;;;;;;;;4833382;29;19971;-93
2021/03/01 15:24:09;;;;;;;;;;;;;;;;;;4895716;29;19951;-93
2021/03/01 15:26:43;;;;;;;;;;;;;;;;;;4886016;29;19928;-94
2021/03/01 15:29:12;;;;;;;;;;;;;;;;;;4894915;29;19963;-93
2021/03/01 15:31:44;;;;;;;;;;;;;;;;;;4957126;28;19925;-94
2021/03/01 15:37:26;;;;;;;;;;;;;;;;;;4988140;28;20057;-93
2021/03/01 15:39:58;;;;;;;;;;;;;;;;;;4966799;28;19926;-93
2021/03/01 15:42:58;;;;;;;;;;;;;;;;;;4969878;28;19937;-94
2021/03/01 15:45:52;;;;;;;;;;;;;;;;;;4946872;29;19926;-93
2021/03/01 15:48:36;;;;;;;;;;;;;;;;;;4914021;29;19990;-94
2021/03/01 15:51:05;;;;;;;;;;;;;;;;;;4948360;29;19933;-93
2021/03/01 15:53:39;;;;;;;;;;;;;;;;;;4954625;29;20434;-93
2021/03/01 15:56:35;;;;;;;;;;;;;;;;;;4960758;29;19930;-93
2021/03/01 15:59:10;;;;;;;;;;;;;;;;;;4943787;29;19938;-93
2021/03/01 16:01:49;;;;;;;;;;;;;;;;;;4949391;29;19975;-93
2021/03/01 16:04:19;;;;;;;;;;;;;;;;;;4946129;29;20040;-89
2021/03/01 16:09:59;;;;;;;;;;;;;;;;;;4933623;29;19937;-93
2021/03/01 16:15:39;;;;;;;;;;;;;;;;;;4962723;29;19977;-91
2021/03/01 16:30:32;;;;;;;;;;;;;;;;;;4911699;29;20527;-91
2021/03/01 16:33:38;;;;;;;;;;;;;;;;;;;;;
2021/03/01 16:39:51;;;;;;;;;;;;;;;;;;4938926;29;19946;-93
2021/03/01 16:45:19;;;;;;;;;;;;;;;;;;4939125;29;19934;-92
2021/03/01 17:06:51;;;;;;;;;;;;;;;;;;4925663;29;19966;-91
2021/03/01 17:09:46;;;;;;;;;;;;;;;;;;4916383;29;19939;-92
2021/03/01 17:12:40;;;;;;;;;;;;;;;;;;4927091;29;19927;-92
2021/03/01 17:15:26;;;;;;;;;;;;;;;;;;4966887;28;19933;-91
2021/03/01 17:21:07;;;;;;;;;;;;;;;;;;4988859;28;19927;-94
2021/03/01 17:23:55;;;;;;;;;;;;;;;;;;4989334;28;19934;-93
2021/03/01 17:26:27;;;;;;;;;;;;;;;;;;4968947;28;19982;-93
2021/03/01 17:29:16;;;;;;;;;;;;;;;;;;4965244;28;20499;-94
2021/03/01 17:31:46;;;;;;;;;;;;;;;;;;4977838;28;19940;-93
2021/03/01 17:37:20;;;;;;;;;;;;;;;;;;5002221;28;19929;-93
2021/03/01 17:40:07;;;;;;;;;;;;;;;;;;4998207;28;19926;-94
2021/03/01 17:48:30;;;;;;;;;;;;;;;;;;4994901;28;19933;-94
2021/03/01 17:54:06;;;;;;;;;;;;;;;;;;4986049;28;19936;-93
2021/03/01 17:59:56;;;;;;;;;;;;;;;;;;4980726;28;19934;-93
2021/03/01 18:02:43;;;;;;;;;;;;;;;;;;4977179;28;19926;-94
2021/03/01 18:11:07;;;;;;;;;;;;;;;;;;5002863;28;19929;-94
2021/03/01 18:13:38;;;;;;;;;;;;;;;;;;5004936;28;19926;-94
2021/03/01 18:16:11;;;;;;;;;;;;;;;;;;5023358;28;19941;-93
2021/03/01 18:18:55;;;;;;;;;;;;;;;;;;5008770;28;19961;-93
2021/03/01 18:21:29;;;;;;;;;;;;;;;;;;5023736;28;19949;-93
2021/03/01 18:24:09;;;;;;;;;;;;;;;;;;5023847;28;19987;-92
2021/03/01 18:26:44;;;;;;;;;;;;;;;;;;5025014;28;19925;-94
2021/03/01 18:29:22;;;;;;;;;;;;;;;;;;5021908;28;20348;-94
2021/03/01 18:31:50;;;;;;;;;;;;;;;;;;5017507;28;19929;-93
2021/03/01 18:34:22;;;;;;;;;;;;;;;;;;5017506;28;19965;-94
2021/03/01 18:36:55;;;;;;;;;;;;;;;;;;5009050;28;19925;-92
2021/03/01 18:39:37;;;;;;;;;;;;;;;;;;5024046;28;19929;-93
2021/03/01 18:42:08;;;;;;;;;;;;;;;;;;5024936;28;20301;-94
2021/03/01 18:47:50;;;;;;;;;;;;;;;;;;5033505;28;19932;-94
2021/03/01 18:50:30;;;;;;;;;;;;;;;;;;5033161;28;20288;-94
2021/03/01 18:53:00;;;;;;;;;;;;;;;;;;5029094;28;19948;-94
2021/03/01 18:55:28;;;;;;;;;;;;;;;;;;5028673;28;19945;-94
2021/03/01 19:16:04;;;;;;;;;;;;;;;;;;4989115;28;19929;-93
2021/03/01 19:21:51;;;;;;;;;;;;;;;;;;4928270;29;19922;-93
2021/03/01 19:24:49;;;;;;;;;;;;;;;;;;4946602;29;19938;-93
2021/03/01 19:49:21;;;;;;;;;;;;;;;;;;4996156;23;20068;-63
2021/03/01 19:51:48;;;;;;;;;;;;;;;;;;5006559;28;19929;-64
2021/03/01 19:54:16;;;;;;;;;;;;;;;;;;5007804;28;20024;-64
2021/03/01 19:56:43;;;;;;;;;;;;;;;;;;5007041;28;20336;-63
2021/03/01 19:59:10;;;;;;;;;;;;;;;;;;5009138;28;20007;-63
2021/03/01 20:01:38;;;;;;;;;;;;;;;;;;5010451;28;19929;-63
2021/03/01 20:04:05;;;;;;;;;;;;;;;;;;5014515;28;20449;-63
2021/03/01 20:06:33;;;;;;;;;;;;;;;;;;5021474;28;20373;-63
2021/03/01 20:09:00;;;;;;;;;;;;;;;;;;5027136;28;19929;-65
2021/03/01 20:11:27;;;;;;;;;;;;;;;;;;5008500;28;19972;-63
2021/03/01 20:13:55;;;;;;;;;;;;;;;;;;5008229;28;20038;-64
2021/03/01 20:16:22;;;;;;;;;;;;;;;;;;5009204;28;20008;-63
2021/03/01 20:18:50;;;;;;;;;;;;;;;;;;5008281;28;19934;-63
2021/03/01 20:21:17;;;;;;;;;;;;;;;;;;5007817;28;19936;-64
2021/03/01 20:23:44;;;;;;;;;;;;;;;;;;5008587;28;20023;-63
2021/03/01 20:26:11;;;;;;;;;;;;;;;;;;5008008;28;19930;-63
2021/03/01 20:28:39;;;;;;;;;;;;;;;;;;5006925;28;19933;-64
2021/03/01 20:31:06;;;;;;;;;;;;;;;;;;5007674;28;19968;-63
2021/03/01 20:33:33;;;;;;;;;;;;;;;;;;5008065;28;19929;-65
2021/03/01 20:36:00;;;;;;;;;;;;;;;;;;5005719;28;19929;-64
2021/03/01 20:38:28;;;;;;;;;;;;;;;;;;5007463;28;19933;-63
2021/03/01 20:40:55;;;;;;;;;;;;;;;;;;5007721;28;20012;-64
2021/03/01 20:43:22;;;;;;;;;;;;;;;;;;5008731;28;20336;-64
2021/03/01 20:45:49;;;;;;;;;;;;;;;;;;5008156;28;19996;-63
2021/03/01 20:48:17;;;;;;;;;;;;;;;;;;5006575;28;19930;-65
2021/03/01 20:50:44;;;;;;;;;;;;;;;;;;5007571;28;19981;-63
2021/03/01 20:53:12;;;;;;;;;;;;;;;;;;5008516;28;19936;-62
2021/03/01 20:55:39;;;;;;;;;;;;;;;;;;5007139;28;19934;-62
2021/03/01 20:58:07;;;;;;;;;;;;;;;;;;5008126;28;19925;-63
2021/03/01 21:00:45;;;;;;;;;;;;;;;;;;4994418;28;19929;-62
2021/03/01 21:03:13;;;;;;;;;;;;;;;;;;5006076;28;20421;-62
2021/03/01 21:05:41;;;;;;;;;;;;;;;;;;5004592;28;20088;-63
2021/03/01 21:08:09;;;;;;;;;;;;;;;;;;5006364;28;19937;-63
2021/03/01 21:10:36;;;;;;;;;;;;;;;;;;5003886;28;20356;-63
2021/03/01 21:13:03;;;;;;;;;;;;;;;;;;5017968;28;20561;-63
2021/03/01 21:15:31;;;;;;;;;;;;;;;;;;5018783;28;20351;-62
2021/03/01 21:17:58;;;;;;;;;;;;;;;;;;5025611;28;19986;-62
2021/03/01 21:20:25;;;;;;;;;;;;;;;;;;5019299;28;19937;-62
2021/03/01 21:22:53;;;;;;;;;;;;;;;;;;5007147;28;20375;-62
2021/03/01 21:25:20;;;;;;;;;;;;;;;;;;5007014;28;19929;-63
2021/03/01 21:27:47;;;;;;;;;;;;;;;;;;5006168;28;20438;-63
2021/03/01 21:30:14;;;;;;;;;;;;;;;;;;5008210;28;20475;-63
2021/03/01 21:32:42;;;;;;;;;;;;;;;;;;5010753;28;20634;-63
2021/03/01 21:35:09;;;;;;;;;;;;;;;;;;5008352;28;19933;-63
2021/03/01 21:37:37;;;;;;;;;;;;;;;;;;5008516;28;20036;-63